Time;durP1;ratioP1;P1;durP2;ratioP2;P2;SDS_P1;SDS_P2;PMS_P1;PMS_P2;Temp;Humidity;BMP_temperature;BMP_pressure;BME280_temperature;BME280_humidity;BME280_pressure;Samples;Min_cycle;Max_cycle;Signal;HPM_P1;HPM_P2
2021/06/29 00:01:57;;;;;;;10.90;6.50;;;;;;;21.66;59.05;95123.13;4963127;28;20471;-86
2021/06/29 00:04:22;;;;;;;7.85;6.53;;;;;;;21.60;59.05;95118.19;4964376;28;20027;-86
2021/06/29 00:06:49;;;;;;;14.68;6.40;;;;;;;21.62;58.83;95127.41;4930061;28;20507;-87
2021/06/29 00:09:14;;;;;;;9.55;5.40;;;;;;;21.62;58.90;95121.34;4929139;28;20039;-86
2021/06/29 00:11:40;;;;;;;9.98;6.10;;;;;;;21.58;59.30;95118.50;4931084;28;20422;-87
2021/06/29 00:14:05;;;;;;;6.28;5.55;;;;;;;21.56;59.40;95112.72;4947198;28;20031;-87
2021/06/29 00:16:31;;;;;;;10.15;6.22;;;;;;;21.55;59.44;95113.78;4929392;28;20382;-87
2021/06/29 00:18:56;;;;;;;6.88;5.47;;;;;;;21.53;59.33;95111.44;4943613;28;20035;-87
2021/06/29 00:21:22;;;;;;;6.32;5.28;;;;;;;21.51;59.38;95107.53;4963253;28;20031;-87
2021/06/29 00:23:47;;;;;;;7.65;5.78;;;;;;;21.50;59.10;95103.31;4969375;28;20102;-87
2021/06/29 00:26:14;;;;;;;18.75;6.45;;;;;;;21.50;59.60;95113.91;4960964;28;20035;-87
2021/06/29 00:28:39;;;;;;;12.27;5.95;;;;;;;21.47;59.39;95112.59;4962252;28;20483;-87
2021/06/29 00:31:05;;;;;;;8.18;5.60;;;;;;;21.37;58.42;95102.22;5001024;23;20042;-87
2021/06/29 00:33:37;;;;;;;7.80;4.85;;;;;;;21.29;57.58;95092.28;4973549;28;20041;-87
2021/06/29 00:36:05;;;;;;;;;;;;;;;21.41;57.97;95110.34;4958760;28;20490;-87
2021/06/29 00:38:30;;;;;;;8.02;5.63;;;;;;;21.26;58.75;95098.19;4978485;28;20397;-87
2021/06/29 00:40:56;;;;;;;11.82;5.22;;;;;;;21.35;58.80;95114.19;4980333;28;20030;-87
2021/06/29 00:43:22;;;;;;;7.13;4.80;;;;;;;21.16;58.98;95093.06;4964166;28;20070;-87
2021/06/29 00:45:48;;;;;;;7.13;5.13;;;;;;;21.14;58.73;95101.25;4980162;28;20026;-87
2021/06/29 00:48:16;;;;;;;7.13;5.25;;;;;;;21.14;59.08;95100.47;4979378;28;20034;-87
2021/06/29 00:50:42;;;;;;;5.63;4.72;;;;;;;21.09;59.15;95108.50;4965821;28;20027;-88
2021/06/29 00:53:09;;;;;;;5.95;4.95;;;;;;;21.06;59.29;95109.88;4996161;28;20027;-87
2021/06/29 00:55:35;;;;;;;6.30;4.82;;;;;;;21.03;59.37;95109.66;4979149;28;20061;-87
2021/06/29 00:58:00;;;;;;;14.60;6.00;;;;;;;21.01;60.23;95107.31;4981377;28;20031;-87
2021/06/29 01:00:26;;;;;;;7.00;5.53;;;;;;;21.00;60.04;95110.25;4963691;28;20030;-87
2021/06/29 01:02:51;;;;;;;8.38;5.50;;;;;;;20.98;59.92;95103.38;4963972;28;20080;-87
2021/06/29 01:05:17;;;;;;;8.05;5.53;;;;;;;21.02;60.11;95108.88;4947621;28;20026;-87
2021/06/29 01:07:43;;;;;;;9.48;5.22;;;;;;;21.00;60.08;95107.59;4980925;28;20037;-86
2021/06/29 01:10:09;;;;;;;11.68;5.22;;;;;;;21.06;59.87;95111.72;4979377;28;20101;-87
2021/06/29 01:12:35;;;;;;;7.05;5.40;;;;;;;21.06;59.69;95114.38;4978717;28;20595;-87
2021/06/29 01:15:00;;;;;;;10.43;5.72;;;;;;;21.05;59.75;95115.44;4980793;28;20103;-86
2021/06/29 01:17:35;;;;;;;8.75;5.72;;;;;;;21.05;59.54;95112.81;4983494;28;20022;-86
2021/06/29 01:20:08;;;;;;;8.88;5.40;;;;;;;21.01;59.77;95107.31;4988235;28;20198;-86
2021/06/29 01:22:34;;;;;;;7.03;5.63;;;;;;;20.99;59.95;95109.47;4986905;28;20035;-86
2021/06/29 01:24:59;;;;;;;11.40;5.38;;;;;;;21.03;59.98;95107.03;4984546;28;20034;-87
2021/06/29 01:27:48;;;;;;;8.68;5.70;;;;;;;21.02;59.87;95102.81;4971705;28;20038;-86
2021/06/29 01:32:48;;;;;;;12.23;5.80;;;;;;;20.99;60.00;95098.91;5011408;28;20073;-86
2021/06/29 01:35:44;;;;;;;14.82;5.57;;;;;;;20.95;60.28;95101.31;5005044;28;20041;-87
2021/06/29 01:38:15;;;;;;;14.20;5.78;;;;;;;20.86;60.22;95087.19;5000099;28;20031;-86
2021/06/29 01:40:41;;;;;;;16.83;5.40;;;;;;;20.88;60.52;95095.63;5001822;28;20038;-85
2021/06/29 01:43:06;;;;;;;17.90;8.07;;;;;;;20.92;60.08;95107.19;5004683;28;20041;-86
2021/06/29 01:45:33;;;;;;;20.17;8.07;;;;;;;20.85;60.26;95101.50;5005709;28;20051;-86
2021/06/29 01:48:01;;;;;;;16.58;7.35;;;;;;;20.87;59.99;95109.91;4987811;28;20119;-86
2021/06/29 01:50:27;;;;;;;17.98;7.55;;;;;;;20.84;60.50;95105.22;4979604;28;20038;-86
2021/06/29 01:52:57;;;;;;;8.50;6.80;;;;;;;20.86;60.50;95105.69;4990442;28;20037;-86
2021/06/29 01:55:23;;;;;;;11.50;6.30;;;;;;;20.79;60.72;95107.13;4981219;28;20042;-86
2021/06/29 01:57:49;;;;;;;12.63;6.50;;;;;;;20.72;60.52;95107.50;4967046;28;20038;-86
2021/06/29 02:00:15;;;;;;;9.55;6.32;;;;;;;20.75;60.84;95106.16;4981728;28;20517;-86
2021/06/29 02:02:41;;;;;;;12.32;6.88;;;;;;;20.76;60.75;95111.13;4949685;28;20034;-86
2021/06/29 02:05:07;;;;;;;12.95;6.93;;;;;;;20.74;60.59;95108.00;4965512;28;20037;-87
2021/06/29 02:07:32;;;;;;;21.85;8.50;;;;;;;20.77;60.75;95101.34;4980173;28;20027;-86
2021/06/29 02:09:58;;;;;;;11.20;6.72;;;;;;;20.73;60.88;95111.72;4969151;28;20034;-86
2021/06/29 02:12:23;;;;;;;19.33;7.05;;;;;;;20.73;60.77;95106.44;4978489;28;20061;-86
2021/06/29 02:14:49;;;;;;;16.58;7.47;;;;;;;20.70;60.53;95107.00;4977915;28;20034;-86
2021/06/29 02:17:14;;;;;;;11.52;6.72;;;;;;;20.60;60.91;95107.16;4989593;28;20100;-86
2021/06/29 02:19:40;;;;;;;26.08;8.35;;;;;;;20.60;61.03;95109.81;4992755;28;20038;-87
2021/06/29 02:22:06;;;;;;;25.88;8.90;;;;;;;20.59;60.91;95116.94;4987115;28;20074;-89
2021/06/29 02:24:32;;;;;;;21.95;8.02;;;;;;;20.54;61.23;95116.25;4958295;28;20054;-88
2021/06/29 02:26:58;;;;;;;24.05;7.55;;;;;;;20.52;61.37;95113.09;4982240;28;20037;-88
2021/06/29 02:29:23;;;;;;;17.05;7.50;;;;;;;20.51;61.44;95112.31;4978412;28;20022;-88
2021/06/29 02:31:51;;;;;;;18.58;8.15;;;;;;;20.48;61.40;95115.50;4985371;28;20054;-88
2021/06/29 02:34:16;;;;;;;15.55;7.18;;;;;;;20.47;61.16;95113.94;4983083;28;20035;-87
2021/06/29 02:36:42;;;;;;;20.63;6.72;;;;;;;20.44;61.42;95113.75;4979979;28;20864;-77
2021/06/29 02:39:07;;;;;;;15.48;7.22;;;;;;;20.39;61.83;95118.00;4981114;28;20409;-78
2021/06/29 02:41:32;;;;;;;28.33;7.35;;;;;;;20.35;62.22;95117.00;4981796;28;20037;-79
2021/06/29 02:43:58;;;;;;;18.95;7.10;;;;;;;20.31;62.20;95113.34;4984691;28;20031;-79
2021/06/29 02:46:24;;;;;;;21.60;7.78;;;;;;;20.27;62.51;95108.91;4983392;28;20062;-77
2021/06/29 02:48:49;;;;;;;26.67;7.28;;;;;;;20.23;61.98;95107.94;4984693;28;20121;-78
2021/06/29 02:51:15;;;;;;;14.23;6.70;;;;;;;20.17;61.68;95109.06;4985046;28;20042;-79
2021/06/29 02:53:40;;;;;;;12.98;7.03;;;;;;;20.11;61.92;95110.97;4984007;28;20035;-78
2021/06/29 02:56:06;;;;;;;15.65;7.30;;;;;;;20.02;62.68;95118.75;4986963;28;20457;-79
2021/06/29 02:58:31;;;;;;;10.25;7.07;;;;;;;20.00;62.49;95114.81;4986451;28;20038;-79
2021/06/29 03:00:56;;;;;;;32.95;7.85;;;;;;;19.97;63.13;95115.38;4985414;28;20609;-78
2021/06/29 03:03:22;;;;;;;15.20;7.00;;;;;;;19.97;62.90;95118.03;4983722;28;20066;-78
2021/06/29 03:05:47;;;;;;;22.70;7.90;;;;;;;19.98;62.83;95122.22;4985207;28;20038;-78
2021/06/29 03:08:13;;;;;;;21.75;8.10;;;;;;;19.95;62.96;95125.44;5010648;28;20067;-78
2021/06/29 03:10:38;;;;;;;24.52;8.65;;;;;;;19.95;62.71;95123.59;5005206;28;20069;-78
2021/06/29 03:13:03;;;;;;;27.25;9.75;;;;;;;19.96;62.60;95121.72;4985818;28;20105;-79
2021/06/29 03:15:29;;;;;;;21.90;8.57;;;;;;;19.95;62.67;95113.03;4983979;28;20039;-79
2021/06/29 03:17:54;;;;;;;27.77;8.85;;;;;;;19.96;62.71;95121.72;4988564;28;20038;-79
2021/06/29 03:20:20;;;;;;;31.30;8.60;;;;;;;19.98;62.52;95132.78;4987702;28;20113;-78
2021/06/29 03:22:46;;;;;;;28.17;7.97;;;;;;;19.98;62.49;95119.59;4986743;28;20037;-79
2021/06/29 03:25:12;;;;;;;40.95;8.85;;;;;;;19.97;62.68;95120.66;4969239;28;20066;-79
2021/06/29 03:27:37;;;;;;;18.48;7.57;;;;;;;19.98;62.58;95119.59;5002375;28;20563;-78
2021/06/29 03:30:07;;;;;;;31.63;8.90;;;;;;;20.01;62.58;95121.66;4984735;28;20077;-78
2021/06/29 03:32:33;;;;;;;38.65;8.52;;;;;;;20.05;62.63;95122.69;4984943;28;20041;-78
2021/06/29 03:34:58;;;;;;;32.33;7.55;;;;;;;20.08;62.56;95119.47;4985085;28;20074;-79
2021/06/29 03:37:24;;;;;;;23.30;7.22;;;;;;;20.09;62.61;95121.03;5000485;28;20033;-79
2021/06/29 03:39:49;;;;;;;22.77;7.47;;;;;;;20.13;62.66;95123.91;4985620;28;20479;-80
2021/06/29 03:42:15;;;;;;;21.00;7.60;;;;;;;20.19;62.63;95131.47;4969020;28;20089;-79
2021/06/29 03:44:40;;;;;;;13.48;7.25;;;;;;;20.27;62.31;95122.91;4968007;28;20039;-79
2021/06/29 03:47:06;;;;;;;11.65;6.90;;;;;;;20.38;62.45;95131.50;4985563;28;20030;-79
2021/06/29 03:49:31;;;;;;;26.10;7.20;;;;;;;20.48;61.86;95131.38;4984688;28;20106;-79
2021/06/29 03:51:57;;;;;;;18.20;6.93;;;;;;;20.57;61.36;95131.53;4984925;28;20415;-79
2021/06/29 03:54:22;;;;;;;19.27;7.22;;;;;;;20.69;61.45;95137.16;4985416;28;20046;-79
2021/06/29 03:56:48;;;;;;;39.17;8.40;;;;;;;20.83;61.26;95138.00;4987193;28;20030;-79
2021/06/29 03:59:13;;;;;;;24.38;7.43;;;;;;;20.95;60.79;95135.69;4984884;28;20034;-78
2021/06/29 04:01:39;;;;;;;16.67;6.38;;;;;;;21.11;59.85;95138.06;4966957;28;20038;-79
2021/06/29 04:04:04;;;;;;;11.32;6.10;;;;;;;21.32;59.03;95141.22;4984870;28;20034;-79
2021/06/29 04:06:31;;;;;;;14.85;6.47;;;;;;;22.40;56.74;95144.16;4985572;28;20038;-79
2021/06/29 04:08:57;;;;;;;13.48;6.53;;;;;;;24.71;49.46;95139.53;4980555;28;20054;-78
2021/06/29 04:11:25;;;;;;;11.77;7.25;;;;;;;26.84;43.43;95139.38;4983137;28;20030;-79
2021/06/29 04:13:51;;;;;;;13.95;6.45;;;;;;;28.77;38.83;95135.72;4983673;28;20491;-79
2021/06/29 04:16:17;;;;;;;7.78;5.75;;;;;;;30.33;35.51;95139.00;4984170;28;20044;-78
2021/06/29 04:18:42;;;;;;;12.50;6.00;;;;;;;31.72;33.09;95136.38;4983252;28;20030;-80
2021/06/29 04:21:08;;;;;;;12.05;5.57;;;;;;;32.59;30.85;95131.97;4985725;28;20054;-79
2021/06/29 04:23:34;;;;;;;18.88;5.80;;;;;;;33.59;29.57;95125.06;4984675;28;20031;-80
2021/06/29 04:25:59;;;;;;;10.15;5.38;;;;;;;34.59;28.03;95127.38;4983437;28;20030;-80
2021/06/29 04:28:25;;;;;;;11.02;5.20;;;;;;;35.40;26.92;95125.41;4984267;28;20041;-80
2021/06/29 04:30:50;;;;;;;12.13;5.20;;;;;;;36.24;25.54;95123.91;4983922;28;20039;-81
2021/06/29 04:33:16;;;;;;;18.10;5.57;;;;;;;37.33;24.29;95123.22;4984872;28;20026;-80
2021/06/29 04:35:41;;;;;;;17.90;4.80;;;;;;;38.47;22.96;95125.84;4983943;28;20038;-80
2021/06/29 04:38:09;;;;;;;30.25;5.68;;;;;;;39.39;22.13;95131.41;4983938;28;20026;-81
2021/06/29 04:40:35;;;;;;;19.20;5.70;;;;;;;40.19;20.82;95125.13;4986026;28;20502;-80
2021/06/29 04:43:01;;;;;;;25.70;5.50;;;;;;;40.64;19.78;95127.47;4985272;28;20421;-80
2021/06/29 04:45:27;;;;;;;8.00;4.22;;;;;;;41.19;19.87;95123.28;4983364;28;20065;-80
2021/06/29 04:47:55;;;;;;;17.88;4.60;;;;;;;41.79;18.92;95129.41;4966745;28;20036;-80
2021/06/29 04:50:21;;;;;;;21.77;5.13;;;;;;;42.34;18.25;95135.88;4999783;28;20065;-80
2021/06/29 04:52:47;;;;;;;11.05;4.32;;;;;;;42.90;17.70;95125.41;4984215;28;20023;-80
2021/06/29 04:55:13;;;;;;;11.60;4.53;;;;;;;43.29;17.11;95129.78;4966419;28;20406;-80
2021/06/29 04:57:39;;;;;;;11.10;4.18;;;;;;;43.55;16.76;95129.78;4982361;28;20034;-80
2021/06/29 05:00:09;;;;;;;9.38;4.03;;;;;;;44.05;16.82;95130.97;4986009;28;20034;-80
2021/06/29 05:02:35;;;;;;;7.90;4.15;;;;;;;44.52;16.05;95134.50;4985051;28;20609;-80
2021/06/29 05:05:00;;;;;;;15.40;4.88;;;;;;;45.14;15.67;95129.16;4982173;28;20034;-80
2021/06/29 05:07:26;;;;;;;13.85;4.35;;;;;;;45.72;15.26;95133.28;4982486;28;20038;-80
2021/06/29 05:09:51;;;;;;;12.80;3.70;;;;;;;46.12;14.84;95127.00;4975148;28;20607;-80
2021/06/29 05:12:17;;;;;;;13.13;4.25;;;;;;;46.46;14.25;95131.47;4984120;28;20051;-80
2021/06/29 05:14:43;;;;;;;7.72;3.88;;;;;;;46.77;14.25;95132.09;4967880;28;20039;-80
2021/06/29 05:17:08;;;;;;;18.23;4.53;;;;;;;47.05;14.21;95134.81;4950113;28;20098;-80
2021/06/29 05:19:34;;;;;;;9.68;3.60;;;;;;;47.47;13.80;95130.13;4985663;28;20074;-80
2021/06/29 05:21:59;;;;;;;17.60;5.20;;;;;;;47.67;13.42;95135.09;4965705;28;20051;-80
2021/06/29 05:24:25;;;;;;;11.38;3.70;;;;;;;47.91;13.08;95132.41;4987129;28;20089;-80
2021/06/29 05:26:51;;;;;;;7.70;4.30;;;;;;;48.26;13.00;95129.16;4983961;28;20037;-80
2021/06/29 05:29:16;;;;;;;10.90;4.07;;;;;;;48.53;12.76;95130.94;4983907;28;20035;-80
2021/06/29 05:31:42;;;;;;;10.45;4.05;;;;;;;48.96;12.32;95135.03;4982499;28;20034;-80
2021/06/29 05:34:07;;;;;;;12.75;4.07;;;;;;;49.24;12.14;95128.00;4983083;28;20034;-80
2021/06/29 05:36:33;;;;;;;15.38;4.75;;;;;;;49.42;11.96;95137.34;4967547;28;20050;-81
2021/06/29 05:38:58;;;;;;;12.65;3.95;;;;;;;49.73;11.88;95132.06;4997252;28;20031;-80
2021/06/29 05:41:24;;;;;;;12.70;4.97;;;;;;;49.91;12.22;95138.59;4983837;28;20043;-80
2021/06/29 05:43:49;;;;;;;16.30;4.43;;;;;;;50.12;11.91;95131.84;4981916;28;20461;-80
2021/06/29 05:46:15;;;;;;;17.17;5.35;;;;;;;50.33;11.37;95125.09;4978192;28;20930;-80
2021/06/29 05:48:41;;;;;;;12.77;4.55;;;;;;;50.39;10.94;95125.94;4983768;28;20038;-80
2021/06/29 05:51:06;;;;;;;10.57;4.63;;;;;;;49.94;11.50;95123.78;4981375;28;20023;-80
2021/06/29 05:53:32;;;;;;;13.65;5.18;;;;;;;48.99;12.12;95132.13;4984330;28;20034;-80
2021/06/29 05:56:00;;;;;;;14.30;4.80;;;;;;;48.91;12.10;95127.41;4982135;28;20030;-80
2021/06/29 05:58:25;;;;;;;9.80;5.15;;;;;;;49.00;12.14;95130.13;4981092;28;20069;-80
2021/06/29 06:00:51;;;;;;;9.25;4.82;;;;;;;49.17;12.18;95128.41;4983198;28;20031;-80
2021/06/29 06:03:17;;;;;;;15.63;4.85;;;;;;;49.64;12.21;95129.41;4983244;28;20046;-81
2021/06/29 06:05:42;;;;;;;20.13;5.75;;;;;;;49.80;11.12;95128.16;4980356;28;20027;-81
2021/06/29 06:08:08;;;;;;;16.25;6.07;;;;;;;49.70;11.93;95118.44;4983246;28;20034;-81
2021/06/29 06:10:40;;;;;;;10.05;5.68;;;;;;;49.33;11.89;95134.69;4981440;28;20031;-81
2021/06/29 06:13:05;;;;;;;10.77;5.13;;;;;;;49.06;12.12;95119.91;4984652;28;20464;-80
2021/06/29 06:15:31;;;;;;;12.82;5.38;;;;;;;48.93;12.35;95124.91;4981791;28;20034;-80
2021/06/29 06:17:56;;;;;;;9.20;5.60;;;;;;;48.82;12.40;95121.97;4980989;28;20080;-80
2021/06/29 06:20:22;;;;;;;11.80;5.45;;;;;;;48.79;12.26;95115.38;4965448;28;20066;-80
2021/06/29 06:22:48;;;;;;;12.02;4.97;;;;;;;48.59;12.68;95121.56;4984237;28;20030;-80
2021/06/29 06:25:13;;;;;;;18.88;5.40;;;;;;;48.72;12.90;95117.78;4983927;28;20513;-80
2021/06/29 06:27:39;;;;;;;23.73;6.70;;;;;;;48.75;12.67;95122.34;4982350;28;20031;-80
2021/06/29 06:30:20;;;;;;;17.23;6.53;;;;;;;48.30;12.71;95113.94;4983136;28;20101;-81
2021/06/29 06:32:45;;;;;;;14.48;6.43;;;;;;;47.51;13.67;95116.97;4983233;28;20058;-80
2021/06/29 06:35:11;;;;;;;19.85;6.13;;;;;;;47.62;13.49;95110.19;4981696;28;20035;-80
2021/06/29 06:37:37;;;;;;;20.20;6.30;;;;;;;47.55;13.66;95105.78;4997220;28;20088;-80
2021/06/29 06:40:03;;;;;;;13.18;5.82;;;;;;;47.55;13.98;95110.53;5005974;28;20050;-81
2021/06/29 06:42:29;;;;;;;26.35;6.97;;;;;;;47.65;13.48;95114.75;4973901;28;20108;-78
2021/06/29 06:44:55;;;;;;;11.73;4.85;;;;;;;47.93;13.67;95105.13;4980979;28;20459;-81
2021/06/29 06:47:20;;;;;;;14.73;6.30;;;;;;;47.19;14.28;95104.69;4980949;28;20034;-81
2021/06/29 06:49:58;;;;;;;21.90;7.82;;;;;;;47.03;13.88;95104.22;4981334;28;20113;-78
2021/06/29 06:52:23;;;;;;;25.52;7.57;;;;;;;46.65;14.42;95099.97;4984450;28;20034;-79
2021/06/29 06:54:57;;;;;;;12.93;7.22;;;;;;;46.73;14.05;95103.19;4983311;28;20096;-79
2021/06/29 06:57:23;;;;;;;20.17;7.68;;;;;;;45.99;14.90;95103.13;4984695;28;20131;-78
2021/06/29 06:59:48;;;;;;;19.27;7.60;;;;;;;45.48;14.98;95091.81;4983875;28;20135;-78
2021/06/29 07:04:55;;;;;;;20.25;7.18;;;;;;;44.09;16.92;95101.47;4996379;23;20074;-79
2021/06/29 07:07:20;;;;;;;8.30;5.88;;;;;;;43.58;17.70;95087.84;4978015;28;20414;-79
2021/06/29 07:09:46;;;;;;;15.68;6.47;;;;;;;42.93;18.21;95091.72;4980505;28;20038;-79
2021/06/29 07:12:11;;;;;;;38.03;7.13;;;;;;;42.67;18.92;95096.34;4974849;28;20426;-79
2021/06/29 07:14:37;;;;;;;18.55;8.15;;;;;;;42.43;18.49;95092.28;4972797;28;20117;-79
2021/06/29 07:17:03;;;;;;;17.77;8.50;;;;;;;41.68;19.33;95094.16;4972479;28;20513;-80
2021/06/29 07:19:28;;;;;;;17.30;9.25;;;;;;;41.00;20.55;95087.41;4940390;28;20034;-80
2021/06/29 07:21:54;;;;;;;23.73;8.57;;;;;;;40.11;21.26;95085.59;4970921;28;20031;-79
2021/06/29 07:24:19;;;;;;;17.67;8.85;;;;;;;39.60;21.84;95095.75;4971240;28;20486;-79
2021/06/29 07:26:44;;;;;;;15.63;8.85;;;;;;;39.01;22.60;95085.25;4956902;28;20037;-79
2021/06/29 07:29:25;;;;;;;19.63;8.52;;;;;;;38.58;23.35;95076.84;4976464;28;20034;-79
2021/06/29 07:31:51;;;;;;;26.55;10.38;;;;;;;38.43;23.94;95077.00;4976278;28;20098;-79
2021/06/29 07:34:17;;;;;;;16.77;9.48;;;;;;;37.99;24.35;95083.22;4975501;28;20035;-78
2021/06/29 07:36:43;;;;;;;28.83;9.63;;;;;;;37.84;24.74;95081.81;4974446;28;20578;-82
2021/06/29 07:39:08;;;;;;;40.78;9.80;;;;;;;37.68;24.87;95078.81;4976999;28;20043;-84
2021/06/29 07:41:34;;;;;;;27.75;10.23;;;;;;;37.60;25.23;95074.63;4967752;28;20080;-84
2021/06/29 07:43:59;;;;;;;33.95;10.00;;;;;;;37.34;25.57;95076.72;4960500;28;20034;-84
2021/06/29 07:46:25;;;;;;;33.33;10.90;;;;;;;37.27;25.46;95076.78;4977121;28;20027;-84
2021/06/29 07:48:52;;;;;;;29.50;10.80;;;;;;;37.01;26.16;95077.28;4959530;28;20130;-83
2021/06/29 07:51:17;;;;;;;30.20;7.30;;;;;;;36.90;26.50;95066.47;4960348;28;20057;-84
2021/06/29 07:53:43;;;;;;;21.88;10.63;;;;;;;36.78;26.23;95070.41;4978520;28;20491;-84
2021/06/29 07:56:16;;;;;;;32.33;8.98;;;;;;;36.55;26.95;95056.53;4961488;28;20027;-83
2021/06/29 07:58:42;;;;;;;19.52;8.60;;;;;;;36.49;27.01;95058.91;4961944;28;20035;-83
2021/06/29 08:01:08;;;;;;;25.55;9.50;;;;;;;36.49;27.17;95058.13;4960620;28;20506;-84
2021/06/29 08:03:34;;;;;;;19.75;9.82;;;;;;;36.34;27.18;95063.59;4959756;28;20050;-83
2021/06/29 08:05:59;;;;;;;22.52;10.10;;;;;;;36.23;27.11;95064.72;4975699;28;20023;-84
2021/06/29 08:08:24;;;;;;;19.30;10.55;;;;;;;35.97;27.13;95053.19;4975617;28;20039;-84
2021/06/29 08:10:50;;;;;;;22.20;10.55;;;;;;;35.54;27.45;95059.75;4976587;28;20037;-84
2021/06/29 08:13:15;;;;;;;27.02;9.05;;;;;;;35.30;27.89;95066.63;4976452;28;20037;-84
2021/06/29 08:15:41;;;;;;;19.10;8.43;;;;;;;35.13;26.82;95068.94;4978101;28;20058;-84
2021/06/29 08:18:07;;;;;;;15.80;8.75;;;;;;;35.03;28.10;95064.28;4977194;28;20030;-84
2021/06/29 08:20:32;;;;;;;20.65;9.50;;;;;;;34.97;28.07;95055.00;4974369;28;20031;-84
2021/06/29 08:22:58;;;;;;;17.75;8.38;;;;;;;34.93;29.03;95058.84;4976408;28;20045;-84
2021/06/29 08:25:26;;;;;;;26.77;9.60;;;;;;;34.87;28.59;95051.13;4959463;28;20031;-84
2021/06/29 08:27:51;;;;;;;24.15;9.23;;;;;;;34.65;28.83;95048.69;4976004;28;20038;-84
2021/06/29 08:30:18;;;;;;;12.93;8.50;;;;;;;34.48;29.09;95050.94;4974699;28;20035;-84
2021/06/29 08:32:46;;;;;;;18.15;8.35;;;;;;;34.55;29.41;95044.81;4958835;28;20092;-84
2021/06/29 08:35:12;;;;;;;17.13;8.48;;;;;;;34.64;29.58;95041.72;4953599;28;20541;-84
2021/06/29 08:37:38;;;;;;;20.55;9.80;;;;;;;34.45;28.69;95042.81;4975726;28;20034;-84
2021/06/29 08:40:05;;;;;;;17.73;9.18;;;;;;;34.19;29.56;95041.91;4958931;28;20030;-84
2021/06/29 08:42:34;;;;;;;12.35;8.05;;;;;;;34.27;29.68;95042.72;4958708;28;20031;-84
2021/06/29 08:45:00;;;;;;;16.75;8.77;;;;;;;34.28;29.68;95041.56;4959376;28;20615;-84
2021/06/29 08:47:26;;;;;;;13.52;8.60;;;;;;;34.20;30.90;95039.97;4968065;28;20027;-84
2021/06/29 08:49:51;;;;;;;18.48;9.85;;;;;;;34.15;30.13;95034.91;4976460;28;20049;-84
2021/06/29 08:52:16;;;;;;;13.93;9.43;;;;;;;34.11;29.92;95032.22;4975231;28;20065;-84
2021/06/29 08:54:42;;;;;;;21.75;10.95;;;;;;;34.04;29.70;95028.72;4974786;28;20034;-84
2021/06/29 08:57:08;;;;;;;17.40;9.82;;;;;;;33.95;30.59;95020.94;5288639;23;20039;-84
2021/06/29 08:59:33;;;;;;;17.50;8.38;;;;;;;33.95;30.70;95020.94;4944822;29;20122;-84
2021/06/29 09:02:02;;;;;;;21.60;8.18;;;;;;;33.99;30.41;95019.03;4946100;28;20027;-84
2021/06/29 09:04:50;;;;;;;15.00;8.50;;;;;;;33.88;30.75;95018.22;4946224;29;20058;-84
2021/06/29 09:07:17;;;;;;;17.73;9.18;;;;;;;33.82;29.83;95006.94;4945532;29;20042;-84
2021/06/29 09:09:54;;;;;;;10.82;7.68;;;;;;;33.83;30.28;95013.88;4947130;29;20035;-84
2021/06/29 09:12:38;;;;;;;11.32;8.20;;;;;;;33.84;29.99;95004.63;4960835;28;20117;-84
2021/06/29 09:15:23;;;;;;;14.30;8.57;;;;;;;33.76;30.68;95005.75;4945931;29;20042;-84
2021/06/29 09:17:53;;;;;;;12.73;7.55;;;;;;;33.71;29.67;95008.81;4949197;29;20153;-84
2021/06/29 09:20:29;;;;;;;14.55;7.18;;;;;;;33.66;29.86;95001.84;4947924;29;20039;-84
2021/06/29 09:22:56;;;;;;;12.98;8.30;;;;;;;33.65;29.58;94999.50;4938081;29;20062;-83
2021/06/29 09:25:24;;;;;;;16.05;8.98;;;;;;;33.42;29.48;94997.81;4945089;29;20122;-84
2021/06/29 09:27:50;;;;;;;12.40;8.70;;;;;;;33.35;30.42;94992.34;4970135;28;20035;-84
2021/06/29 09:30:38;;;;;;;22.48;9.10;;;;;;;33.30;30.38;94989.97;4947001;29;20035;-84
2021/06/29 09:33:11;;;;;;;16.25;9.90;;;;;;;33.07;31.37;94987.47;4949447;29;20130;-84
2021/06/29 09:35:38;;;;;;;17.65;7.57;;;;;;;33.00;31.59;94986.63;4945531;28;20473;-84
2021/06/29 09:38:04;;;;;;;20.90;9.20;;;;;;;32.92;31.80;94991.19;4946219;29;20142;-84
2021/06/29 09:43:20;;;;;;;19.95;9.15;;;;;;;32.54;32.71;94989.59;5022670;23;20054;-83
2021/06/29 09:45:51;;;;;;;18.03;9.10;;;;;;;32.51;31.51;94977.66;5002327;28;20039;-85
2021/06/29 09:48:37;;;;;;;13.27;8.35;;;;;;;32.63;31.95;94992.00;4984962;28;20290;-84
2021/06/29 09:51:10;;;;;;;10.18;7.82;;;;;;;32.65;31.87;94981.63;4982935;28;20039;-83
2021/06/29 09:53:42;;;;;;;12.73;8.52;;;;;;;32.64;31.76;94978.16;4992543;28;20109;-84
2021/06/29 09:56:13;;;;;;;14.80;8.23;;;;;;;32.52;32.86;94973.03;4967267;28;20034;-84
2021/06/29 09:58:44;;;;;;;19.00;8.90;;;;;;;32.56;32.32;94976.56;4960474;28;20450;-85
2021/06/29 10:01:28;;;;;;;;;;;;;;;;;;;;;
2021/06/29 10:03:58;;;;;;;15.35;8.45;;;;;;;32.55;32.67;94972.31;4969572;28;20042;-83
2021/06/29 10:06:37;;;;;;;17.33;8.68;;;;;;;32.53;32.73;94969.97;4961830;28;20041;-83
2021/06/29 10:09:03;;;;;;;14.18;8.48;;;;;;;32.54;32.48;94968.06;4969493;28;20058;-83
2021/06/29 10:11:33;;;;;;;17.38;8.90;;;;;;;32.34;33.24;94974.75;4986374;28;20033;-85
2021/06/29 10:14:06;;;;;;;11.93;8.75;;;;;;;32.40;33.13;94963.31;4970930;28;20045;-83
2021/06/29 10:16:43;;;;;;;21.65;8.88;;;;;;;32.43;32.72;94959.09;4985744;28;20042;-83
2021/06/29 10:19:16;;;;;;;14.70;8.70;;;;;;;32.45;32.34;94956.81;4968641;28;20038;-85
2021/06/29 10:21:46;;;;;;;16.35;8.27;;;;;;;32.45;33.01;94956.81;4953664;28;20050;-82
2021/06/29 10:26:53;;;;;;;22.65;8.50;;;;;;;32.42;32.72;94941.41;5653252;23;20289;-84
2021/06/29 10:29:22;;;;;;;12.05;8.40;;;;;;;32.50;33.00;94949.19;4980786;28;20092;-84
2021/06/29 10:31:52;;;;;;;9.65;7.43;;;;;;;32.51;33.02;94952.63;4960645;28;20097;-85
2021/06/29 10:34:18;;;;;;;23.50;8.68;;;;;;;32.49;33.31;94941.47;4968727;28;20042;-85
2021/06/29 10:36:48;;;;;;;10.98;8.10;;;;;;;32.46;33.14;94942.97;4971162;28;20093;-84
2021/06/29 10:39:15;;;;;;;13.32;8.50;;;;;;;32.40;33.09;94932.94;4972381;28;20027;-85
2021/06/29 10:42:08;;;;;;;15.18;7.70;;;;;;;32.44;33.13;94933.72;4941557;28;20055;-85
2021/06/29 10:44:37;;;;;;;19.35;8.77;;;;;;;32.41;32.61;94937.16;4973993;28;20050;-85
2021/06/29 10:47:03;;;;;;;12.48;7.68;;;;;;;32.35;32.38;94925.16;4971758;28;20600;-85
2021/06/29 10:49:40;;;;;;;22.83;9.43;;;;;;;32.35;32.36;94919.78;4972273;28;20070;-84
2021/06/29 10:52:32;;;;;;;17.40;8.73;;;;;;;32.34;32.68;94919.00;4947203;28;20031;-85
2021/06/29 10:55:02;;;;;;;25.88;8.98;;;;;;;32.12;32.88;94917.97;4971803;28;20171;-85
2021/06/29 10:57:43;;;;;;;13.52;8.40;;;;;;;32.03;33.14;94914.00;4961734;28;20409;-84
2021/06/29 11:00:21;;;;;;;12.27;8.17;;;;;;;32.10;33.74;94908.72;4970782;28;20172;-85
2021/06/29 11:03:06;;;;;;;21.45;9.20;;;;;;;31.90;32.89;94906.19;4975861;28;20051;-83
2021/06/29 11:05:32;;;;;;;17.95;8.65;;;;;;;31.82;32.44;94909.13;4962708;28;20526;-83
2021/06/29 11:08:14;;;;;;;20.52;9.60;;;;;;;31.70;32.93;94901.25;4980352;28;20026;-82
2021/06/29 11:10:49;;;;;;;;;;;;;;;31.73;33.04;94901.38;4970586;28;20035;-83
2021/06/29 11:13:16;;;;;;;12.98;8.40;;;;;;;31.74;33.06;94892.16;4982817;28;19922;-83
2021/06/29 11:16:14;;;;;;;14.43;8.10;;;;;;;31.81;33.67;94886.84;4985483;28;20037;-83
2021/06/29 11:18:44;;;;;;;23.52;9.73;;;;;;;31.81;33.73;94886.09;4971827;28;20058;-83
2021/06/29 11:21:35;;;;;;;13.60;8.10;;;;;;;31.78;33.50;94892.19;4982901;28;20495;-83
2021/06/29 11:24:00;;;;;;;12.52;8.65;;;;;;;31.84;32.09;94885.34;4964766;28;20383;-83
2021/06/29 11:26:27;;;;;;;9.95;8.10;;;;;;;31.83;33.00;94883.78;4967738;28;20031;-83
2021/06/29 11:29:13;;;;;;;13.65;8.07;;;;;;;31.83;33.32;94884.56;4947455;28;20120;-83
2021/06/29 11:31:45;;;;;;;14.90;7.68;;;;;;;31.84;32.11;94879.97;4986240;28;20042;-79
2021/06/29 11:34:12;;;;;;;13.40;7.95;;;;;;;31.90;33.19;94883.91;4942610;28;20027;-80
2021/06/29 11:36:37;;;;;;;18.30;8.40;;;;;;;31.88;32.26;94886.16;4975660;28;20564;-80
2021/06/29 11:39:22;;;;;;;12.50;8.05;;;;;;;31.86;33.47;94886.53;4973366;28;20055;-81
2021/06/29 11:41:53;;;;;;;19.58;8.15;;;;;;;31.85;33.30;94876.91;4977619;28;20038;-82